Time;durP1;ratioP1;P1;durP2;ratioP2;P2;SDS_P1;SDS_P2;PMS_P1;PMS_P2;Temp;Humidity;BMP_temperature;BMP_pressure;BME280_temperature;BME280_humidity;BME280_pressure;Samples;Min_cycle;Max_cycle;Signal;HPM_P1;HPM_P2
2022/12/09 00:02:14;;;;;;;19.67;11.05;;;;;;;;;;5051789;28;20045;-72
2022/12/09 00:04:40;;;;;;;22.88;10.77;;;;;;;;;;5051476;28;20053;-73
2022/12/09 00:07:06;;;;;;;22.52;11.57;;;;;;;;;;5051604;28;20163;-73
2022/12/09 00:09:32;;;;;;;22.45;11.45;;;;;;;;;;5051793;28;20037;-73
2022/12/09 00:11:59;;;;;;;23.38;10.90;;;;;;;;;;5034644;28;20053;-73
2022/12/09 00:14:25;;;;;;;23.23;11.82;;;;;;;;;;5053141;28;20075;-70
2022/12/09 00:16:51;;;;;;;18.90;10.30;;;;;;;;;;5052236;28;20052;-70
2022/12/09 00:19:17;;;;;;;22.77;10.52;;;;;;;;;;5051580;28;20043;-70
2022/12/09 00:21:43;;;;;;;22.65;11.05;;;;;;;;;;5051306;28;20047;-71
2022/12/09 00:24:10;;;;;;;22.23;11.48;;;;;;;;;;5051140;28;20502;-70
2022/12/09 00:26:37;;;;;;;23.90;10.68;;;;;;;;;;5051777;28;20509;-70
2022/12/09 00:29:03;;;;;;;23.25;11.05;;;;;;;;;;5051275;28;20525;-70
2022/12/09 00:31:31;;;;;;;19.88;10.35;;;;;;;;;;5051147;28;20041;-70
2022/12/09 00:33:58;;;;;;;22.77;11.27;;;;;;;;;;5044635;28;20116;-70
2022/12/09 00:36:25;;;;;;;21.08;10.73;;;;;;;;;;5051142;28;20083;-70
2022/12/09 00:38:51;;;;;;;23.73;11.00;;;;;;;;;;5034476;28;20048;-70
2022/12/09 00:41:17;;;;;;;21.92;10.73;;;;;;;;;;5051048;28;20041;-70
2022/12/09 00:43:43;;;;;;;20.00;10.27;;;;;;;;;;5052427;28;20040;-71
2022/12/09 00:46:10;;;;;;;21.48;10.70;;;;;;;;;;5050385;28;20051;-70
2022/12/09 00:48:37;;;;;;;20.83;11.00;;;;;;;;;;5051033;28;20045;-70
2022/12/09 00:51:04;;;;;;;23.23;10.75;;;;;;;;;;5050555;28;20088;-70
2022/12/09 00:53:30;;;;;;;20.40;10.38;;;;;;;;;;5034806;28;20508;-70
2022/12/09 00:55:56;;;;;;;26.70;11.68;;;;;;;;;;5033892;28;20044;-70
2022/12/09 00:58:22;;;;;;;21.98;11.00;;;;;;;;;;5050789;28;20116;-71
2022/12/09 01:00:48;;;;;;;22.73;11.00;;;;;;;;;;5050583;28;20506;-71
2022/12/09 01:03:15;;;;;;;22.98;10.98;;;;;;;;;;5050783;28;20124;-71
2022/12/09 01:05:41;;;;;;;18.17;10.35;;;;;;;;;;5050618;28;20057;-71
2022/12/09 01:08:08;;;;;;;20.75;10.68;;;;;;;;;;5050755;28;20037;-71
2022/12/09 01:10:34;;;;;;;21.30;10.77;;;;;;;;;;5050676;28;20085;-71
2022/12/09 01:13:00;;;;;;;19.52;11.13;;;;;;;;;;5050406;28;20076;-71
2022/12/09 01:15:26;;;;;;;23.08;10.70;;;;;;;;;;5051805;28;20523;-72
2022/12/09 01:17:52;;;;;;;23.80;11.68;;;;;;;;;;5051574;28;20112;-71
2022/12/09 01:20:18;;;;;;;18.63;8.93;;;;;;;;;;5052252;28;20040;-71
2022/12/09 01:22:45;;;;;;;22.30;10.90;;;;;;;;;;5049271;28;20033;-71
2022/12/09 01:25:11;;;;;;;25.25;10.95;;;;;;;;;;5050840;28;20052;-72
2022/12/09 01:27:38;;;;;;;21.63;11.85;;;;;;;;;;5050640;28;20040;-72
2022/12/09 01:30:05;;;;;;;23.10;11.70;;;;;;;;;;5050530;28;20052;-72
2022/12/09 01:32:31;;;;;;;17.85;8.13;;;;;;;;;;5067362;28;20033;-72
2022/12/09 01:34:57;;;;;;;19.60;9.65;;;;;;;;;;5050583;28;20076;-71
2022/12/09 01:37:24;;;;;;;21.42;10.23;;;;;;;;;;5054556;28;20049;-71
2022/12/09 01:39:50;;;;;;;21.13;10.13;;;;;;;;;;5054438;28;20037;-72
2022/12/09 01:42:21;;;;;;;20.77;10.98;;;;;;;;;;5054079;28;20033;-72
2022/12/09 01:45:05;;;;;;;21.20;10.55;;;;;;;;;;5054629;28;20049;-72
2022/12/09 01:47:31;;;;;;;16.90;9.65;;;;;;;;;;5054182;28;20037;-72
2022/12/09 01:49:57;;;;;;;19.02;10.45;;;;;;;;;;5054114;28;20048;-72
2022/12/09 01:52:24;;;;;;;19.67;10.40;;;;;;;;;;5037795;28;20032;-72
2022/12/09 01:54:51;;;;;;;22.55;10.75;;;;;;;;;;5054489;28;20037;-72
2022/12/09 01:57:17;;;;;;;22.23;10.65;;;;;;;;;;5053830;28;20036;-71
2022/12/09 01:59:43;;;;;;;19.75;9.75;;;;;;;;;;5054421;28;20508;-71
2022/12/09 02:02:13;;;;;;;22.92;11.25;;;;;;;;;;5053499;28;20536;-71
2022/12/09 02:04:40;;;;;;;18.65;10.15;;;;;;;;;;5037267;28;20052;-71
2022/12/09 02:07:08;;;;;;;19.55;9.95;;;;;;;;;;5053687;28;20053;-71
2022/12/09 02:09:34;;;;;;;22.13;10.15;;;;;;;;;;5054184;28;20041;-72
2022/12/09 02:12:10;;;;;;;23.20;10.00;;;;;;;;;;5053550;28;20072;-71
2022/12/09 02:14:42;;;;;;;19.20;9.82;;;;;;;;;;5054084;28;20072;-71
2022/12/09 02:17:20;;;;;;;20.85;10.15;;;;;;;;;;5053801;28;20044;-71
2022/12/09 02:20:02;;;;;;;17.77;9.27;;;;;;;;;;5053897;28;20044;-71
2022/12/09 02:22:34;;;;;;;24.23;11.18;;;;;;;;;;5053646;28;20037;-72
2022/12/09 02:25:03;;;;;;;20.38;9.88;;;;;;;;;;5053282;28;20179;-71
2022/12/09 02:27:40;;;;;;;20.98;10.57;;;;;;;;;;5053845;28;20512;-71
2022/12/09 02:30:10;;;;;;;22.70;10.73;;;;;;;;;;5036833;28;20049;-71
2022/12/09 02:32:45;;;;;;;23.27;11.32;;;;;;;;;;5054834;28;20045;-71
2022/12/09 02:35:21;;;;;;;15.73;8.10;;;;;;;;;;5039841;28;20045;-71
2022/12/09 02:37:47;;;;;;;22.42;10.70;;;;;;;;;;5036896;28;20329;-71
2022/12/09 02:40:17;;;;;;;21.83;10.10;;;;;;;;;;5053150;28;20128;-71
2022/12/09 02:42:45;;;;;;;22.55;10.18;;;;;;;;;;5053459;28;20040;-71
2022/12/09 02:45:12;;;;;;;18.60;9.95;;;;;;;;;;5036371;28;20553;-71
2022/12/09 02:47:42;;;;;;;19.23;10.23;;;;;;;;;;5054135;28;20374;-71
2022/12/09 02:50:10;;;;;;;21.13;10.00;;;;;;;;;;5054170;28;20067;-72
2022/12/09 02:52:37;;;;;;;22.25;9.93;;;;;;;;;;5054255;28;20490;-71
2022/12/09 02:55:06;;;;;;;16.88;8.77;;;;;;;;;;5052596;28;20049;-71
2022/12/09 02:57:34;;;;;;;18.27;8.70;;;;;;;;;;5053081;28;20044;-71
2022/12/09 03:00:00;;;;;;;23.40;9.95;;;;;;;;;;5053070;28;20037;-71
2022/12/09 03:02:32;;;;;;;17.85;9.10;;;;;;;;;;5051127;28;20393;-71
2022/12/09 03:05:10;;;;;;;17.08;8.38;;;;;;;;;;5052211;28;20049;-71
2022/12/09 03:07:51;;;;;;;18.25;9.60;;;;;;;;;;5080654;28;20048;-71
2022/12/09 03:10:38;;;;;;;19.75;9.88;;;;;;;;;;5052605;28;20434;-71
2022/12/09 03:13:06;;;;;;;19.35;9.18;;;;;;;;;;5052905;28;20516;-71
2022/12/09 03:15:34;;;;;;;19.15;9.23;;;;;;;;;;5052658;28;20401;-71
2022/12/09 03:18:02;;;;;;;17.85;8.50;;;;;;;;;;5052458;28;20071;-71
2022/12/09 03:20:30;;;;;;;19.35;8.85;;;;;;;;;;5052067;28;20041;-71
2022/12/09 03:22:59;;;;;;;18.55;8.57;;;;;;;;;;5052373;28;20083;-71
2022/12/09 03:25:27;;;;;;;20.98;9.52;;;;;;;;;;5052375;28;20124;-71
2022/12/09 03:27:56;;;;;;;21.23;9.10;;;;;;;;;;5052353;28;20083;-71
2022/12/09 03:30:22;;;;;;;21.80;9.15;;;;;;;;;;5043439;28;20090;-71
2022/12/09 03:32:49;;;;;;;21.80;9.38;;;;;;;;;;5052346;28;20076;-71
2022/12/09 03:35:22;;;;;;;19.88;8.88;;;;;;;;;;5038312;28;20114;-71
2022/12/09 03:37:50;;;;;;;20.95;9.40;;;;;;;;;;5052834;28;20075;-72
2022/12/09 03:40:17;;;;;;;20.65;8.85;;;;;;;;;;5053153;28;20128;-72
2022/12/09 03:42:48;;;;;;;20.52;9.50;;;;;;;;;;5052340;28;20072;-72
2022/12/09 03:45:15;;;;;;;19.52;8.48;;;;;;;;;;5051664;28;20052;-71
2022/12/09 03:47:41;;;;;;;21.10;9.50;;;;;;;;;;5052146;28;20080;-72
2022/12/09 03:50:08;;;;;;;21.15;9.63;;;;;;;;;;5053189;28;20040;-72
2022/12/09 03:52:40;;;;;;;25.92;10.90;;;;;;;;;;5051873;28;20179;-72
2022/12/09 03:55:18;;;;;;;23.02;9.40;;;;;;;;;;5035735;28;20436;-71
2022/12/09 03:57:45;;;;;;;28.27;10.45;;;;;;;;;;5051992;28;20037;-72
2022/12/09 04:00:11;;;;;;;25.30;10.98;;;;;;;;;;5051506;28;20504;-72
2022/12/09 04:02:38;;;;;;;24.15;9.77;;;;;;;;;;5051970;28;20029;-72
2022/12/09 04:05:04;;;;;;;27.65;11.30;;;;;;;;;;5034830;28;20088;-71
2022/12/09 04:07:30;;;;;;;23.98;10.32;;;;;;;;;;5034838;28;20049;-71
2022/12/09 04:09:56;;;;;;;27.38;11.07;;;;;;;;;;5051560;28;20041;-71
2022/12/09 04:12:22;;;;;;;25.00;10.88;;;;;;;;;;5051350;28;20051;-71
2022/12/09 04:14:48;;;;;;;28.30;11.02;;;;;;;;;;5051778;28;20076;-71
2022/12/09 04:17:14;;;;;;;21.50;9.52;;;;;;;;;;5051409;28;20049;-71
2022/12/09 04:19:40;;;;;;;23.65;9.88;;;;;;;;;;5035155;28;20032;-71
2022/12/09 04:22:06;;;;;;;24.58;10.80;;;;;;;;;;5051587;28;20076;-71
2022/12/09 04:24:32;;;;;;;28.52;11.25;;;;;;;;;;5052219;28;20075;-71
2022/12/09 04:26:58;;;;;;;23.48;10.23;;;;;;;;;;5051453;28;20418;-71
2022/12/09 04:29:24;;;;;;;29.05;11.50;;;;;;;;;;5034455;28;20110;-72
2022/12/09 04:31:50;;;;;;;32.75;11.63;;;;;;;;;;5051236;28;20133;-71
2022/12/09 04:34:16;;;;;;;25.67;10.80;;;;;;;;;;5023419;28;20049;-72
2022/12/09 04:36:42;;;;;;;29.38;10.68;;;;;;;;;;5048820;28;20111;-71
2022/12/09 04:39:08;;;;;;;34.88;11.27;;;;;;;;;;5052460;28;20037;-72
2022/12/09 04:41:35;;;;;;;29.75;11.18;;;;;;;;;;5052076;28;20083;-72
2022/12/09 04:44:01;;;;;;;29.08;11.30;;;;;;;;;;5051084;28;20045;-72
2022/12/09 04:46:27;;;;;;;32.63;11.85;;;;;;;;;;5051020;28;20072;-72
2022/12/09 04:48:53;;;;;;;29.35;11.68;;;;;;;;;;5037360;28;20486;-72
2022/12/09 04:51:19;;;;;;;34.10;11.40;;;;;;;;;;5050769;28;20611;-72
2022/12/09 04:53:45;;;;;;;30.85;11.18;;;;;;;;;;5051308;28;20044;-72
2022/12/09 04:56:13;;;;;;;27.35;10.80;;;;;;;;;;5034387;28;20123;-72
2022/12/09 04:58:39;;;;;;;25.65;10.10;;;;;;;;;;5050928;28;20494;-72
2022/12/09 05:01:09;;;;;;;31.05;11.02;;;;;;;;;;5032249;28;20045;-71
2022/12/09 05:03:36;;;;;;;32.47;11.55;;;;;;;;;;5033554;28;20519;-72
2022/12/09 05:06:03;;;;;;;26.00;10.45;;;;;;;;;;5049906;28;20061;-71
2022/12/09 05:08:29;;;;;;;37.40;12.63;;;;;;;;;;5050256;28;20048;-72
2022/12/09 05:10:55;;;;;;;33.33;12.88;;;;;;;;;;5050436;28;20076;-71
2022/12/09 05:13:21;;;;;;;33.50;12.57;;;;;;;;;;5052363;28;20045;-72
2022/12/09 05:15:47;;;;;;;37.50;13.63;;;;;;;;;;5048046;28;20037;-72
2022/12/09 05:18:13;;;;;;;45.33;13.95;;;;;;;;;;5052410;28;20033;-72
2022/12/09 05:20:39;;;;;;;42.88;14.32;;;;;;;;;;5051519;28;20037;-72
2022/12/09 05:23:06;;;;;;;37.72;13.57;;;;;;;;;;5083219;28;20120;-72
2022/12/09 05:25:32;;;;;;;40.75;13.98;;;;;;;;;;5050602;28;20045;-72
2022/12/09 05:27:58;;;;;;;42.38;14.38;;;;;;;;;;5051899;28;20041;-72
2022/12/09 05:30:24;;;;;;;37.35;13.70;;;;;;;;;;5050098;28;20056;-72
2022/12/09 05:32:50;;;;;;;34.40;12.23;;;;;;;;;;5050667;28;20044;-72
2022/12/09 05:35:16;;;;;;;39.33;13.50;;;;;;;;;;5020509;28;20076;-71
2022/12/09 05:37:42;;;;;;;35.08;11.98;;;;;;;;;;5050073;28;20082;-72
2022/12/09 05:40:09;;;;;;;35.03;12.98;;;;;;;;;;5033728;28;20066;-71
2022/12/09 05:42:35;;;;;;;30.55;11.80;;;;;;;;;;5050348;28;20041;-72
2022/12/09 05:45:01;;;;;;;27.58;10.30;;;;;;;;;;5051812;28;20044;-72
2022/12/09 05:47:28;;;;;;;38.85;14.40;;;;;;;;;;5033687;28;20041;-71
2022/12/09 05:49:54;;;;;;;41.80;13.70;;;;;;;;;;5050468;28;20044;-71
2022/12/09 05:52:20;;;;;;;35.70;12.80;;;;;;;;;;5050630;28;20390;-71
2022/12/09 05:54:46;;;;;;;38.67;13.27;;;;;;;;;;5050290;28;20503;-71
2022/12/09 05:57:12;;;;;;;39.88;13.43;;;;;;;;;;5051773;28;20044;-71
2022/12/09 05:59:38;;;;;;;40.40;13.55;;;;;;;;;;5050107;28;20083;-71
2022/12/09 06:02:04;;;;;;;41.42;13.85;;;;;;;;;;5050142;28;20052;-71
2022/12/09 06:04:30;;;;;;;41.42;13.80;;;;;;;;;;5049970;28;20140;-72
2022/12/09 06:06:56;;;;;;;34.42;13.65;;;;;;;;;;5050073;28;20045;-71
2022/12/09 06:09:22;;;;;;;40.65;13.30;;;;;;;;;;5050309;28;20044;-71
2022/12/09 06:11:48;;;;;;;47.10;14.60;;;;;;;;;;5049802;28;20076;-71
2022/12/09 06:14:15;;;;;;;45.63;14.63;;;;;;;;;;5049977;28;20052;-71
2022/12/09 06:16:41;;;;;;;43.85;15.18;;;;;;;;;;5049670;28;20120;-71
2022/12/09 06:19:09;;;;;;;45.33;15.40;;;;;;;;;;5050165;28;20056;-72
2022/12/09 06:21:38;;;;;;;50.47;15.15;;;;;;;;;;5051429;28;20041;-72
2022/12/09 06:24:04;;;;;;;49.80;15.20;;;;;;;;;;5053531;28;20055;-72
2022/12/09 06:26:30;;;;;;;51.60;15.57;;;;;;;;;;5053392;28;20048;-72
2022/12/09 06:28:58;;;;;;;51.65;16.67;;;;;;;;;;5053686;28;20132;-72
2022/12/09 06:31:24;;;;;;;57.83;18.70;;;;;;;;;;5054567;28;20048;-72
2022/12/09 06:33:50;;;;;;;64.88;19.17;;;;;;;;;;5045991;28;20139;-72
2022/12/09 06:36:16;;;;;;;63.88;19.10;;;;;;;;;;5048753;28;20048;-72
2022/12/09 06:38:42;;;;;;;68.72;19.67;;;;;;;;;;5052934;28;20032;-72
2022/12/09 06:41:09;;;;;;;75.68;21.63;;;;;;;;;;5036798;28;20041;-72
2022/12/09 06:43:35;;;;;;;83.88;22.90;;;;;;;;;;5054171;28;20041;-71
2022/12/09 06:46:02;;;;;;;87.22;23.83;;;;;;;;;;5053577;28;20032;-72
2022/12/09 06:48:28;;;;;;;90.97;23.88;;;;;;;;;;5036846;28;20064;-71
2022/12/09 06:50:54;;;;;;;86.97;24.52;;;;;;;;;;5053051;28;20094;-71
2022/12/09 06:53:20;;;;;;;108.88;25.33;;;;;;;;;;5036575;28;20041;-72
2022/12/09 06:55:47;;;;;;;133.93;28.27;;;;;;;;;;5052583;28;20079;-72
2022/12/09 06:58:13;;;;;;;138.77;27.75;;;;;;;;;;5053404;28;20045;-73
2022/12/09 07:00:39;;;;;;;421.90;36.47;;;;;;;;;;5035971;28;20071;-72
2022/12/09 07:03:05;;;;;;;684.53;44.45;;;;;;;;;;5054340;28;20524;-72
2022/12/09 07:05:31;;;;;;;702.92;41.05;;;;;;;;;;5054244;28;20099;-72
2022/12/09 07:07:57;;;;;;;698.92;42.67;;;;;;;;;;5052392;28;20040;-72
2022/12/09 07:10:24;;;;;;;611.08;42.28;;;;;;;;;;5052616;28;20052;-72
2022/12/09 07:12:50;;;;;;;633.42;40.55;;;;;;;;;;5035787;28;20033;-72
2022/12/09 07:15:18;;;;;;;635.20;40.90;;;;;;;;;;5036630;28;20440;-72
2022/12/09 07:17:47;;;;;;;689.22;43.35;;;;;;;;;;5052225;28;20045;-72
2022/12/09 07:20:13;;;;;;;669.70;41.65;;;;;;;;;;5036366;28;20041;-72
2022/12/09 07:22:41;;;;;;;800.22;43.47;;;;;;;;;;5052060;28;20068;-73
2022/12/09 07:25:08;;;;;;;742.80;43.28;;;;;;;;;;5054175;28;20037;-72
2022/12/09 07:27:40;;;;;;;602.88;36.10;;;;;;;;;;5036372;28;20041;-72
2022/12/09 07:30:06;;;;;;;598.92;39.08;;;;;;;;;;5035760;28;20048;-73
2022/12/09 07:32:32;;;;;;;692.92;38.80;;;;;;;;;;5052216;28;20049;-73
2022/12/09 07:34:58;;;;;;;809.67;47.15;;;;;;;;;;5038445;28;20045;-73
2022/12/09 07:37:24;;;;;;;795.45;48.15;;;;;;;;;;5052649;28;20052;-73
2022/12/09 07:39:50;;;;;;;721.85;43.58;;;;;;;;;;5051826;28;20037;-73
2022/12/09 07:42:19;;;;;;;780.55;46.65;;;;;;;;;;5035983;28;20032;-72
2022/12/09 07:44:48;;;;;;;550.63;40.20;;;;;;;;;;5051903;28;20036;-73
2022/12/09 07:47:14;;;;;;;643.72;42.65;;;;;;;;;;5052347;28;20653;-72
2022/12/09 07:49:40;;;;;;;729.17;47.70;;;;;;;;;;5053772;28;20040;-71
2022/12/09 07:52:06;;;;;;;761.38;47.00;;;;;;;;;;5052063;28;20409;-71
2022/12/09 07:54:32;;;;;;;636.92;40.28;;;;;;;;;;5052196;28;20490;-71
2022/12/09 07:56:58;;;;;;;570.30;41.20;;;;;;;;;;5051329;28;20617;-72
2022/12/09 07:59:24;;;;;;;562.22;41.65;;;;;;;;;;5052212;28;20041;-72
2022/12/09 08:01:53;;;;;;;643.72;40.20;;;;;;;;;;5051593;28;20040;-74
2022/12/09 08:04:19;;;;;;;500.85;34.95;;;;;;;;;;5051926;28;20069;-72
2022/12/09 08:06:45;;;;;;;549.15;37.97;;;;;;;;;;5051162;28;20064;-72
2022/12/09 08:09:12;;;;;;;472.63;34.45;;;;;;;;;;5051616;28;20390;-72
2022/12/09 08:11:38;;;;;;;424.55;33.05;;;;;;;;;;5035532;28;20119;-72
2022/12/09 08:14:05;;;;;;;472.90;35.50;;;;;;;;;;5051044;28;20120;-73
2022/12/09 08:16:31;;;;;;;369.23;31.05;;;;;;;;;;5052940;28;20041;-71
2022/12/09 08:18:57;;;;;;;248.23;29.58;;;;;;;;;;5034685;28;20445;-73
2022/12/09 08:21:27;;;;;;;292.60;29.70;;;;;;;;;;5051927;28;20056;-73
2022/12/09 08:23:57;;;;;;;389.70;30.70;;;;;;;;;;5051035;28;20037;-73
2022/12/09 08:26:24;;;;;;;337.90;29.48;;;;;;;;;;5052396;28;20059;-72
2022/12/09 08:28:51;;;;;;;329.90;30.50;;;;;;;;;;5034649;28;20455;-71
2022/12/09 08:31:26;;;;;;;297.05;27.20;;;;;;;;;;5035018;28;20071;-71
2022/12/09 08:33:53;;;;;;;236.18;22.33;;;;;;;;;;5043287;28;20038;-72
2022/12/09 08:36:28;;;;;;;327.30;28.02;;;;;;;;;;5045795;28;20045;-71
2022/12/09 08:38:54;;;;;;;279.17;28.33;;;;;;;;;;5050908;28;20037;-72
2022/12/09 08:41:33;;;;;;;340.95;29.10;;;;;;;;;;5052412;28;20116;-72
2022/12/09 08:44:20;;;;;;;152.80;22.77;;;;;;;;;;5051422;28;20405;-72
2022/12/09 08:46:50;;;;;;;272.17;28.98;;;;;;;;;;5084562;28;20080;-72
2022/12/09 08:49:23;;;;;;;271.27;26.38;;;;;;;;;;5051371;28;20045;-75
2022/12/09 08:51:50;;;;;;;308.83;27.88;;;;;;;;;;5051957;28;20095;-71
2022/12/09 08:54:17;;;;;;;307.98;28.33;;;;;;;;;;5034642;28;20087;-71
2022/12/09 08:56:44;;;;;;;370.05;31.92;;;;;;;;;;5050563;28;20052;-72
2022/12/09 08:59:10;;;;;;;266.98;28.30;;;;;;;;;;5050882;28;20047;-72
2022/12/09 09:01:36;;;;;;;258.40;27.52;;;;;;;;;;5051269;28;20119;-72
2022/12/09 09:04:28;;;;;;;247.93;26.50;;;;;;;;;;5034087;28;20041;-73
2022/12/09 09:06:54;;;;;;;200.95;25.17;;;;;;;;;;5050311;28;20437;-71
2022/12/09 09:09:20;;;;;;;194.20;25.65;;;;;;;;;;5050843;28;20048;-71
2022/12/09 09:11:49;;;;;;;147.00;25.63;;;;;;;;;;5050681;28;20045;-72
2022/12/09 09:14:18;;;;;;;182.55;25.30;;;;;;;;;;5050801;28;20047;-71
2022/12/09 09:16:44;;;;;;;200.15;24.65;;;;;;;;;;5034238;28;20048;-73
2022/12/09 09:19:15;;;;;;;182.68;24.30;;;;;;;;;;5050407;28;20033;-72
2022/12/09 09:21:41;;;;;;;116.50;21.92;;;;;;;;;;5050932;28;20120;-71
2022/12/09 09:24:11;;;;;;;181.98;24.70;;;;;;;;;;5050320;28;20044;-72
2022/12/09 09:26:41;;;;;;;192.32;23.92;;;;;;;;;;5034541;28;20554;-72
2022/12/09 09:29:10;;;;;;;194.35;25.17;;;;;;;;;;5050244;28;20115;-72
2022/12/09 09:31:36;;;;;;;146.57;22.35;;;;;;;;;;5050819;28;20378;-72
2022/12/09 09:34:17;;;;;;;;;;;;;;;;;;;;;
2022/12/09 09:36:44;;;;;;;89.50;21.10;;;;;;;;;;5033282;28;20041;-72
2022/12/09 09:39:10;;;;;;;78.68;20.60;;;;;;;;;;5050429;28;20535;-72
2022/12/09 09:41:42;;;;;;;69.38;20.60;;;;;;;;;;5052082;28;20033;-73
2022/12/09 09:44:27;;;;;;;68.60;18.48;;;;;;;;;;5050196;28;20059;-73
2022/12/09 09:46:53;;;;;;;107.78;21.73;;;;;;;;;;5050794;28;20467;-72
2022/12/09 09:49:24;;;;;;;71.30;19.25;;;;;;;;;;5050455;28;20394;-73
2022/12/09 09:51:50;;;;;;;92.57;19.92;;;;;;;;;;5050759;28;20045;-73
2022/12/09 09:54:16;;;;;;;71.10;19.05;;;;;;;;;;5050154;28;20084;-72
2022/12/09 09:56:53;;;;;;;88.00;18.73;;;;;;;;;;5053682;28;20075;-72
2022/12/09 09:59:19;;;;;;;64.25;18.40;;;;;;;;;;5055194;28;20041;-72
2022/12/09 10:01:57;;;;;;;58.03;17.42;;;;;;;;;;5054460;28;20119;-72
2022/12/09 10:04:23;;;;;;;49.65;17.55;;;;;;;;;;5054189;28;20037;-72
2022/12/09 10:07:04;;;;;;;48.15;18.35;;;;;;;;;;5037658;28;20060;-73
2022/12/09 10:09:33;;;;;;;56.17;17.88;;;;;;;;;;5054656;28;20056;-72
2022/12/09 10:12:11;;;;;;;54.03;17.85;;;;;;;;;;5055719;28;20414;-72
2022/12/09 10:14:50;;;;;;;63.30;18.52;;;;;;;;;;5055842;28;20037;-71
2022/12/09 10:17:32;;;;;;;66.25;19.33;;;;;;;;;;5054902;28;20041;-72
2022/12/09 10:20:25;;;;;;;64.82;18.08;;;;;;;;;;5053916;28;20041;-71
2022/12/09 10:22:53;;;;;;;44.28;18.08;;;;;;;;;;5051191;28;20077;-71
2022/12/09 10:25:24;;;;;;;41.75;18.23;;;;;;;;;;5053315;28;20120;-71
2022/12/09 10:27:56;;;;;;;46.78;18.92;;;;;;;;;;5054033;28;20048;-71
2022/12/09 10:30:23;;;;;;;39.78;17.85;;;;;;;;;;5053231;28;20037;-72
2022/12/09 10:32:49;;;;;;;42.20;17.77;;;;;;;;;;5054922;28;20044;-71
2022/12/09 10:35:22;;;;;;;46.15;17.80;;;;;;;;;;5039751;28;20052;-73
2022/12/09 10:37:51;;;;;;;43.40;16.58;;;;;;;;;;5055149;28;20037;-72
2022/12/09 10:40:20;;;;;;;48.90;17.52;;;;;;;;;;5053063;28;20123;-71
2022/12/09 10:45:33;;;;;;;37.38;17.15;;;;;;;;;;5053337;28;20084;-73
2022/12/09 10:47:59;;;;;;;37.53;17.08;;;;;;;;;;5053404;28;20048;-73
2022/12/09 10:50:32;;;;;;;39.67;16.67;;;;;;;;;;5052639;28;20540;-73
2022/12/09 10:54:00;;;;;;;36.88;17.00;;;;;;;;;;5053927;28;20166;-74
2022/12/09 10:56:07;;;;;;;35.28;16.00;;;;;;;;;;5042343;28;20084;-71
2022/12/09 10:58:33;;;;;;;34.08;16.35;;;;;;;;;;5036889;28;20037;-73
2022/12/09 11:01:10;;;;;;;36.58;15.75;;;;;;;;;;5054815;28;20466;-73
2022/12/09 11:03:39;;;;;;;41.55;17.83;;;;;;;;;;5053340;28;20045;-72
2022/12/09 11:06:21;;;;;;;37.15;16.83;;;;;;;;;;5052518;28;20118;-72
2022/12/09 11:08:58;;;;;;;54.83;17.40;;;;;;;;;;5036254;28;20488;-72
2022/12/09 11:11:44;;;;;;;42.97;17.40;;;;;;;;;;5036308;28;20565;-72
2022/12/09 11:14:21;;;;;;;;;;;;;;;;;;5052565;28;20037;-72
2022/12/09 11:16:47;;;;;;;64.35;17.85;;;;;;;;;;5052761;28;20381;-72
2022/12/09 11:19:14;;;;;;;49.75;17.65;;;;;;;;;;5052487;28;20029;-72
2022/12/09 11:21:40;;;;;;;67.18;17.33;;;;;;;;;;5052897;28;20393;-72
2022/12/09 11:24:19;;;;;;;48.75;18.33;;;;;;;;;;5036039;28;20130;-73
2022/12/09 11:26:45;;;;;;;51.60;17.52;;;;;;;;;;5054138;28;20474;-71
2022/12/09 11:29:16;;;;;;;43.47;17.10;;;;;;;;;;5052017;28;20044;-71
2022/12/09 11:31:42;;;;;;;41.75;18.13;;;;;;;;;;5052434;28;20123;-71
2022/12/09 11:34:16;;;;;;;40.72;18.23;;;;;;;;;;5042568;28;20041;-71
2022/12/09 11:36:46;;;;;;;44.90;19.23;;;;;;;;;;5049838;28;20041;-71
2022/12/09 11:39:18;;;;;;;43.90;19.52;;;;;;;;;;5052023;28;20398;-72
2022/12/09 11:44:34;;;;;;;45.03;19.20;;;;;;;;;;5051780;28;20130;-71
2022/12/09 11:47:00;;;;;;;46.08;20.23;;;;;;;;;;5051994;28;20157;-71
2022/12/09 11:49:27;;;;;;;48.33;22.15;;;;;;;;;;5051650;28;20068;-71
2022/12/09 11:52:02;;;;;;;52.10;22.88;;;;;;;;;;5052204;28;20052;-72
2022/12/09 11:54:47;;;;;;;38.33;17.10;;;;;;;;;;5035089;28;20052;-72
2022/12/09 11:57:49;;;;;;;54.47;21.98;;;;;;;;;;5051378;28;20116;-71
2022/12/09 12:00:18;;;;;;;47.05;21.10;;;;;;;;;;4994532;28;20395;-71
2022/12/09 12:02:46;;;;;;;47.22;19.23;;;;;;;;;;5041196;28;20087;-71
2022/12/09 12:05:12;;;;;;;44.10;19.55;;;;;;;;;;5051489;28;20037;-72
2022/12/09 12:07:43;;;;;;;44.95;18.80;;;;;;;;;;5051778;28;20045;-71
2022/12/09 12:10:15;;;;;;;43.83;18.48;;;;;;;;;;5051717;28;20045;-71
2022/12/09 12:12:41;;;;;;;39.15;18.33;;;;;;;;;;5051437;28;20068;-71
2022/12/09 12:15:17;;;;;;;40.33;17.63;;;;;;;;;;5051796;28;20500;-71
2022/12/09 12:17:48;;;;;;;38.95;17.98;;;;;;;;;;5051479;28;20126;-71
2022/12/09 12:20:14;;;;;;;41.30;18.02;;;;;;;;;;5034186;28;20072;-71
2022/12/09 12:22:50;;;;;;;46.03;20.27;;;;;;;;;;5035010;28;20124;-72
2022/12/09 12:25:28;;;;;;;44.10;20.30;;;;;;;;;;5052288;28;20044;-73
2022/12/09 12:28:13;;;;;;;40.42;18.35;;;;;;;;;;5051163;28;20130;-72
2022/12/09 12:30:42;;;;;;;41.90;18.58;;;;;;;;;;5050965;28;20515;-73
2022/12/09 12:33:26;;;;;;;41.28;18.88;;;;;;;;;;5049984;28;20040;-73
2022/12/09 12:36:06;;;;;;;42.05;18.33;;;;;;;;;;5042032;28;20049;-73
2022/12/09 12:38:52;;;;;;;37.40;17.33;;;;;;;;;;5034151;28;20047;-73
2022/12/09 12:41:30;;;;;;;41.75;18.08;;;;;;;;;;5051078;28;20533;-72
2022/12/09 12:46:41;;;;;;;47.40;20.30;;;;;;;;;;5050543;28;20045;-73
2022/12/09 12:49:26;;;;;;;45.33;19.65;;;;;;;;;;5052301;28;20033;-73
2022/12/09 12:51:55;;;;;;;43.70;19.00;;;;;;;;;;5051003;28;20052;-72
2022/12/09 12:54:30;;;;;;;41.63;18.38;;;;;;;;;;5050649;28;20052;-73
2022/12/09 12:57:02;;;;;;;34.78;14.68;;;;;;;;;;5050805;28;20045;-72
2022/12/09 12:59:47;;;;;;;44.45;19.55;;;;;;;;;;5050657;28;20049;-72
2022/12/09 13:02:19;;;;;;;47.63;20.63;;;;;;;;;;5050922;28;20037;-72
2022/12/09 13:04:53;;;;;;;44.97;20.45;;;;;;;;;;5051060;28;20088;-72
2022/12/09 13:07:28;;;;;;;43.65;20.35;;;;;;;;;;5052043;28;20053;-72
2022/12/09 13:09:58;;;;;;;43.50;20.40;;;;;;;;;;5051165;28;20074;-72
2022/12/09 13:15:15;;;;;;;41.63;19.55;;;;;;;;;;5051013;28;20565;-72
2022/12/09 13:17:43;;;;;;;41.22;19.48;;;;;;;;;;5050842;28;20542;-72
2022/12/09 13:20:14;;;;;;;42.60;18.80;;;;;;;;;;5050846;28;20051;-72
2022/12/09 13:23:10;;;;;;;43.33;19.58;;;;;;;;;;5050241;28;20037;-72
2022/12/09 13:25:55;;;;;;;38.03;18.20;;;;;;;;;;4998445;28;20117;-72
2022/12/09 13:28:41;;;;;;;38.42;18.48;;;;;;;;;;5050725;28;20040;-72
2022/12/09 13:31:08;;;;;;;37.85;18.55;;;;;;;;;;5036850;28;20045;-72
2022/12/09 13:33:49;;;;;;;41.00;19.40;;;;;;;;;;5048932;28;20037;-72
2022/12/09 13:36:20;;;;;;;40.40;18.50;;;;;;;;;;5048692;28;20049;-72
2022/12/09 13:38:46;;;;;;;42.60;18.95;;;;;;;;;;5054374;28;20552;-72
2022/12/09 13:42:51;;;;;;;36.90;18.67;;;;;;;;;;5054763;28;20040;-72
2022/12/09 13:44:20;;;;;;;39.80;18.73;;;;;;;;;;5055642;28;20040;-72
2022/12/09 13:46:46;;;;;;;38.85;18.40;;;;;;;;;;5053940;28;20049;-72
2022/12/09 13:49:25;;;;;;;38.38;19.50;;;;;;;;;;5037591;28;20049;-72
2022/12/09 13:51:53;;;;;;;41.70;19.73;;;;;;;;;;5054268;28;20163;-72
2022/12/09 13:54:26;;;;;;;42.88;19.02;;;;;;;;;;5054495;28;20490;-72
2022/12/09 13:57:08;;;;;;;40.30;18.98;;;;;;;;;;5054088;28;20037;-72
2022/12/09 13:59:40;;;;;;;42.78;20.08;;;;;;;;;;5053736;28;20114;-72
2022/12/09 14:02:12;;;;;;;44.58;20.25;;;;;;;;;;5054079;28;20041;-72
2022/12/09 14:04:50;;;;;;;45.05;20.50;;;;;;;;;;5055132;28;20047;-72
2022/12/09 14:07:31;;;;;;;44.13;20.75;;;;;;;;;;5053834;28;20055;-72
2022/12/09 14:09:57;;;;;;;46.42;19.58;;;;;;;;;;5054061;28;20052;-72
2022/12/09 14:12:32;;;;;;;43.72;19.42;;;;;;;;;;5054232;28;20441;-72
2022/12/09 14:15:00;;;;;;;44.35;20.73;;;;;;;;;;5037627;28;20520;-72
2022/12/09 14:17:27;;;;;;;42.50;19.88;;;;;;;;;;5055335;28;20049;-72
2022/12/09 14:19:55;;;;;;;43.25;19.73;;;;;;;;;;5053389;28;20103;-72
2022/12/09 14:22:21;;;;;;;44.88;20.27;;;;;;;;;;5037088;28;20040;-72
2022/12/09 14:24:48;;;;;;;42.88;20.10;;;;;;;;;;5053424;28;20063;-72
2022/12/09 14:27:18;;;;;;;44.17;20.27;;;;;;;;;;5055031;28;20076;-72
2022/12/09 14:29:44;;;;;;;47.90;21.48;;;;;;;;;;5039917;28;20490;-72
2022/12/09 14:32:25;;;;;;;45.88;21.00;;;;;;;;;;5087137;28;20048;-72
2022/12/09 14:35:12;;;;;;;47.88;22.63;;;;;;;;;;5039560;28;20041;-72
2022/12/09 14:37:40;;;;;;;56.53;23.17;;;;;;;;;;5023026;28;20057;-72
2022/12/09 14:40:15;;;;;;;46.47;22.60;;;;;;;;;;5053481;28;20048;-72
2022/12/09 14:43:00;;;;;;;49.70;21.33;;;;;;;;;;5052038;28;20036;-72
2022/12/09 14:45:41;;;;;;;48.53;22.33;;;;;;;;;;5053592;28;20398;-72